Time;durP1;ratioP1;P1;durP2;ratioP2;P2;SDS_P1;SDS_P2;PMS_P1;PMS_P2;Temp;Humidity;BMP_temperature;BMP_pressure;BME280_temperature;BME280_humidity;BME280_pressure;Samples;Min_cycle;Max_cycle;Signal;HPM_P1;HPM_P2
2022/06/09 00:01:23;;;;;;;66.88;16.95;;;13.40;99.90;;;;;;5011168;28;20442;-45
2022/06/09 00:04:14;;;;;;;69.80;17.35;;;13.40;99.90;;;;;;5011580;28;20370;-45
2022/06/09 00:06:54;;;;;;;58.75;16.20;;;13.50;99.90;;;;;;5011137;28;20046;-46
2022/06/09 00:09:27;;;;;;;68.65;17.40;;;13.40;99.90;;;;;;5011541;28;20146;-46
2022/06/09 00:11:54;;;;;;;94.38;20.23;;;13.50;99.90;;;;;;5011246;28;20047;-45
2022/06/09 00:14:20;;;;;;;66.13;16.08;;;13.70;99.90;;;;;;5011270;28;20425;-45
2022/06/09 00:16:47;;;;;;;69.95;16.92;;;13.50;99.90;;;;;;5010898;28;20061;-45
2022/06/09 00:19:13;;;;;;;55.50;15.85;;;13.50;99.90;;;;;;5011160;28;20099;-45
2022/06/09 00:21:39;;;;;;;57.85;14.50;;;13.90;99.90;;;;;;5010631;28;20552;-45
2022/06/09 00:24:06;;;;;;;83.47;18.00;;;13.50;99.90;;;;;;5011136;28;20046;-44
2022/06/09 00:26:32;;;;;;;88.55;19.02;;;13.50;99.90;;;;;;5010796;28;20050;-44
2022/06/09 00:28:58;;;;;;;77.80;17.85;;;13.50;99.90;;;;;;5011071;28;20614;-47
2022/06/09 00:31:24;;;;;;;73.90;17.05;;;13.70;99.90;;;;;;5010796;28;20050;-46
2022/06/09 00:33:49;;;;;;;101.40;18.65;;;13.50;99.90;;;;;;5010807;28;20056;-46
2022/06/09 00:36:16;;;;;;;72.82;17.00;;;14.30;99.90;;;;;;5010784;28;20415;-45
2022/06/09 00:38:42;;;;;;;83.25;17.88;;;13.30;99.90;;;;;;5010730;28;20053;-44
2022/06/09 00:41:08;;;;;;;69.95;17.98;;;13.50;99.90;;;;;;5009265;28;20045;-47
2022/06/09 00:43:33;;;;;;;63.50;16.05;;;13.40;99.90;;;;;;5010735;28;20139;-45
2022/06/09 00:46:21;;;;;;;72.07;17.83;;;13.90;99.90;;;;;;5010453;28;20077;-46
2022/06/09 00:48:52;;;;;;;78.85;19.48;;;13.40;99.90;;;;;;5010746;28;20469;-45
2022/06/09 00:51:41;;;;;;;57.13;17.00;;;13.50;99.90;;;;;;5010793;28;20393;-46
2022/06/09 00:54:24;;;;;;;103.03;20.77;;;13.50;99.90;;;;;;5010459;28;20038;-46
2022/06/09 00:57:04;;;;;;;67.43;17.63;;;13.40;99.90;;;;;;5010593;28;20038;-46
2022/06/09 00:59:31;;;;;;;55.70;16.05;;;13.30;99.90;;;;;;5010768;28;20045;-46
2022/06/09 01:02:00;;;;;;;102.05;20.10;;;13.20;99.90;;;;;;5010609;28;20045;-45
2022/06/09 01:04:28;;;;;;;96.50;20.38;;;13.20;99.90;;;;;;5010367;28;20049;-45
2022/06/09 01:06:58;;;;;;;66.45;18.33;;;14.10;99.90;;;;;;5009924;28;20049;-45
2022/06/09 01:09:26;;;;;;;56.92;17.52;;;13.60;99.90;;;;;;5013674;28;20069;-45
2022/06/09 01:11:54;;;;;;;104.03;20.77;;;13.10;99.90;;;;;;5016495;28;20065;-46
2022/06/09 01:14:24;;;;;;;110.57;21.50;;;13.50;99.90;;;;;;5017211;28;20471;-45
2022/06/09 01:17:07;;;;;;;96.80;21.20;;;13.00;99.90;;;;;;5016428;28;20595;-44
2022/06/09 01:19:51;;;;;;;130.43;24.67;;;13.90;99.90;;;;;;5017172;28;20053;-45
2022/06/09 01:22:32;;;;;;;75.22;19.65;;;13.00;99.90;;;;;;5015548;28;20081;-46
2022/06/09 01:25:36;;;;;;;90.28;23.63;;;13.40;99.90;;;;;;5016845;28;20092;-45
2022/06/09 01:28:14;;;;;;;79.00;20.65;;;13.20;99.90;;;;;;5016059;28;20571;-46
2022/06/09 01:31:01;;;;;;;96.22;22.55;;;13.30;99.90;;;;;;5015271;28;20038;-45
2022/06/09 01:33:38;;;;;;;110.00;24.75;;;13.60;99.90;;;;;;5016716;28;20548;-45
2022/06/09 01:36:50;;;;;;;148.02;28.13;;;13.30;99.90;;;;;;5015471;28;20058;-45
2022/06/09 01:39:15;;;;;;;117.45;26.23;;;13.40;99.90;;;;;;5000499;28;20493;-45
2022/06/09 01:41:48;;;;;;;90.13;23.25;;;13.40;99.90;;;;;;5016658;28;20177;-45
2022/06/09 01:44:17;;;;;;;88.18;24.55;;;13.40;99.90;;;;;;5016837;28;20045;-44
2022/06/09 01:46:45;;;;;;;120.38;26.35;;;13.50;99.90;;;;;;5016538;28;20160;-46
2022/06/09 01:49:18;;;;;;;79.38;21.77;;;13.50;99.90;;;;;;5016551;28;20356;-45
2022/06/09 01:51:46;;;;;;;154.65;29.88;;;13.50;99.90;;;;;;5016547;28;20048;-45
2022/06/09 01:54:32;;;;;;;99.45;25.08;;;13.50;99.90;;;;;;5016392;28;20501;-45
2022/06/09 01:57:17;;;;;;;131.32;26.63;;;13.50;99.90;;;;;;5016213;28;20064;-44
2022/06/09 01:59:48;;;;;;;126.00;26.33;;;13.60;99.90;;;;;;5016329;28;20056;-45
2022/06/09 02:02:20;;;;;;;128.00;26.42;;;13.60;99.90;;;;;;5016671;28;20588;-45
2022/06/09 02:04:51;;;;;;;81.53;21.50;;;13.50;99.90;;;;;;5016385;28;20057;-46
2022/06/09 02:07:19;;;;;;;78.85;20.05;;;13.40;99.90;;;;;;5016554;28;20088;-45
2022/06/09 02:09:45;;;;;;;113.85;24.50;;;13.50;99.90;;;;;;5015707;28;20034;-45
2022/06/09 02:12:18;;;;;;;95.30;23.52;;;13.40;99.90;;;;;;5016749;28;20034;-45
2022/06/09 02:14:48;;;;;;;;;;;13.40;99.90;;;;;;5016510;28;20057;-47
2022/06/09 02:17:15;;;;;;;77.43;20.73;;;13.30;99.90;;;;;;5016118;28;20004;-44
2022/06/09 02:19:41;;;;;;;129.73;25.77;;;13.30;99.90;;;;;;5016295;28;20033;-46
2022/06/09 02:22:10;;;;;;;87.13;23.27;;;13.20;99.90;;;;;;5012335;28;20582;-47
2022/06/09 02:24:36;;;;;;;96.55;23.88;;;13.10;99.90;;;;;;5013398;28;20045;-45
2022/06/09 02:27:02;;;;;;;117.85;25.77;;;13.10;99.90;;;;;;5012985;28;20038;-45
2022/06/09 02:29:28;;;;;;;132.60;26.23;;;13.00;99.90;;;;;;5013142;28;20482;-45
2022/06/09 02:31:55;;;;;;;118.75;24.90;;;13.00;99.90;;;;;;5012940;28;20052;-44
2022/06/09 02:34:21;;;;;;;115.25;25.67;;;12.90;99.90;;;;;;5013252;28;20038;-44
2022/06/09 02:36:47;;;;;;;95.45;23.48;;;13.30;99.90;;;;;;5012948;28;20048;-44
2022/06/09 02:39:12;;;;;;;53.55;17.27;;;12.90;99.90;;;;;;5013054;28;20096;-46
2022/06/09 02:41:38;;;;;;;71.40;22.73;;;12.90;99.90;;;;;;5013048;28;20058;-45
2022/06/09 02:44:04;;;;;;;112.28;24.88;;;12.90;99.90;;;;;;5012574;28;20057;-45
2022/06/09 02:46:31;;;;;;;105.63;25.25;;;13.40;99.90;;;;;;5012920;28;20049;-46
2022/06/09 02:48:57;;;;;;;137.52;28.33;;;12.90;99.90;;;;;;5012793;28;20390;-45
2022/06/09 02:51:27;;;;;;;102.20;25.17;;;13.20;99.90;;;;;;5012836;28;20049;-45
2022/06/09 02:53:57;;;;;;;133.95;27.20;;;12.90;99.90;;;;;;5012657;28;20441;-44
2022/06/09 02:56:23;;;;;;;110.80;26.30;;;13.00;99.90;;;;;;5012486;28;20041;-45
2022/06/09 02:58:49;;;;;;;116.90;25.55;;;13.10;99.90;;;;;;5012327;28;20049;-45
2022/06/09 03:01:15;;;;;;;66.10;20.98;;;13.10;99.90;;;;;;5012736;28;20472;-45
2022/06/09 03:03:41;;;;;;;91.95;23.60;;;13.20;99.90;;;;;;5012663;28;20077;-47
2022/06/09 03:06:07;;;;;;;115.32;26.33;;;13.10;99.90;;;;;;5012314;28;20046;-47
2022/06/09 03:08:33;;;;;;;76.65;21.25;;;13.10;99.90;;;;;;5012375;28;20409;-44
2022/06/09 03:10:58;;;;;;;97.28;24.08;;;13.10;99.90;;;;;;5011741;28;20038;-45
2022/06/09 03:13:24;;;;;;;66.95;23.23;;;13.20;99.90;;;;;;5012462;28;20050;-45
2022/06/09 03:15:50;;;;;;;145.00;28.08;;;13.20;99.90;;;;;;5012253;28;20553;-45
2022/06/09 03:18:19;;;;;;;88.05;24.65;;;13.20;99.90;;;;;;5012078;28;20452;-46
2022/06/09 03:20:46;;;;;;;109.20;26.45;;;13.20;99.90;;;;;;5012114;28;20564;-46
2022/06/09 03:23:11;;;;;;;144.90;30.75;;;13.20;99.90;;;;;;5012073;28;20050;-45
2022/06/09 03:25:38;;;;;;;95.97;27.73;;;13.40;99.90;;;;;;5012214;28;20041;-45
2022/06/09 03:28:05;;;;;;;127.30;31.15;;;13.30;99.90;;;;;;5011911;28;20045;-46
2022/06/09 03:30:32;;;;;;;105.65;29.63;;;13.10;99.90;;;;;;5011821;28;20486;-45
2022/06/09 03:32:58;;;;;;;127.97;33.65;;;13.30;99.90;;;;;;5011697;28;20046;-45
2022/06/09 03:35:23;;;;;;;114.70;31.98;;;13.20;99.90;;;;;;5011828;28;20057;-45
2022/06/09 03:37:49;;;;;;;119.07;30.80;;;13.30;99.90;;;;;;5012260;28;20056;-47
2022/06/09 03:40:18;;;;;;;162.65;33.22;;;13.70;99.90;;;;;;5012160;28;20042;-48
2022/06/09 03:42:44;;;;;;;123.75;29.88;;;13.20;99.90;;;;;;5012062;28;20402;-45
2022/06/09 03:45:11;;;;;;;166.50;33.78;;;13.20;99.90;;;;;;5010388;28;20050;-45
2022/06/09 03:47:36;;;;;;;111.75;30.70;;;13.20;99.90;;;;;;5011892;28;20069;-46
2022/06/09 03:50:04;;;;;;;97.40;29.25;;;13.20;99.90;;;;;;5011893;28;20508;-46
2022/06/09 03:52:29;;;;;;;138.85;32.10;;;13.30;99.90;;;;;;5012171;28;20038;-45
2022/06/09 03:54:55;;;;;;;129.02;32.70;;;13.70;99.90;;;;;;5011836;28;20107;-45
2022/06/09 03:57:21;;;;;;;80.95;25.98;;;13.30;99.90;;;;;;5011564;28;20044;-45
2022/06/09 03:59:46;;;;;;;141.30;31.35;;;13.40;99.90;;;;;;5011721;28;20527;-45
2022/06/09 04:02:12;;;;;;;140.30;30.08;;;13.30;99.90;;;;;;5011375;28;20104;-45
2022/06/09 04:04:37;;;;;;;100.50;26.95;;;13.30;99.90;;;;;;5011638;28;20056;-45
2022/06/09 04:07:04;;;;;;;124.50;29.05;;;13.30;99.90;;;;;;5011202;28;20129;-46
2022/06/09 04:09:29;;;;;;;113.88;26.85;;;13.40;99.90;;;;;;5010783;28;20049;-45
2022/06/09 04:11:55;;;;;;;104.72;27.73;;;13.50;99.90;;;;;;5011329;28;20042;-45
2022/06/09 04:14:20;;;;;;;72.20;22.48;;;13.40;99.90;;;;;;5011174;28;20072;-46
2022/06/09 04:16:46;;;;;;;125.80;28.00;;;13.40;99.90;;;;;;5011082;28;20062;-44
2022/06/09 04:19:15;;;;;;;112.57;28.45;;;13.40;99.90;;;;;;5010933;28;20081;-45
2022/06/09 04:21:42;;;;;;;89.13;24.15;;;13.90;99.90;;;;;;5011263;28;20526;-45
2022/06/09 04:24:08;;;;;;;62.92;19.45;;;13.40;99.90;;;;;;5010966;28;20049;-46
2022/06/09 04:26:36;;;;;;;86.13;21.60;;;14.10;99.90;;;;;;5011155;28;20104;-45
2022/06/09 04:29:05;;;;;;;87.75;23.40;;;13.40;99.90;;;;;;5010875;28;20103;-45
2022/06/09 04:31:30;;;;;;;46.40;16.88;;;13.70;99.90;;;;;;5011020;28;20040;-45
2022/06/09 04:33:56;;;;;;;35.10;13.48;;;13.50;99.90;;;;;;5010984;28;20037;-47
2022/06/09 04:36:22;;;;;;;72.53;19.05;;;13.50;99.90;;;;;;5010900;28;20409;-45
2022/06/09 04:38:48;;;;;;;76.85;19.50;;;13.50;99.90;;;;;;5010937;28;20053;-45
2022/06/09 04:41:15;;;;;;;88.50;20.83;;;13.70;99.90;;;;;;5010721;28;20103;-45
2022/06/09 04:43:44;;;;;;;67.32;18.50;;;13.50;99.90;;;;;;5010387;28;20045;-45
2022/06/09 04:46:12;;;;;;;52.42;16.75;;;13.50;99.90;;;;;;5010633;28;20111;-45
2022/06/09 04:48:39;;;;;;;85.40;19.83;;;13.80;99.90;;;;;;5010867;28;20044;-46
2022/06/09 04:51:09;;;;;;;49.38;16.08;;;13.30;99.90;;;;;;5010676;28;20038;-46
2022/06/09 04:53:35;;;;;;;71.60;20.25;;;13.50;99.90;;;;;;5009421;28;20049;-46
2022/06/09 04:56:01;;;;;;;59.90;17.95;;;13.50;99.90;;;;;;5010372;28;20117;-44
2022/06/09 04:58:27;;;;;;;53.40;14.95;;;13.50;99.90;;;;;;5010532;28;20197;-43
2022/06/09 05:00:53;;;;;;;48.95;16.23;;;13.50;99.90;;;;;;5010473;28;20203;-44
2022/06/09 05:03:20;;;;;;;69.88;18.33;;;13.60;99.90;;;;;;5010674;28;20041;-43
2022/06/09 05:05:47;;;;;;;65.82;20.60;;;13.90;99.90;;;;;;5010588;28;20393;-43
2022/06/09 05:08:13;;;;;;;64.60;18.67;;;13.70;99.90;;;;;;5010350;28;20057;-43
2022/06/09 05:10:41;;;;;;;44.83;16.23;;;13.60;99.90;;;;;;5009944;28;20038;-43
2022/06/09 05:13:07;;;;;;;63.78;20.52;;;13.60;99.90;;;;;;5010099;28;20042;-44
2022/06/09 05:15:46;;;;;;;47.60;18.38;;;14.60;99.90;;;;;;5010092;28;20195;-43
2022/06/09 05:18:12;;;;;;;44.90;18.55;;;13.80;99.90;;;;;;5010210;28;20076;-44
2022/06/09 05:20:38;;;;;;;35.30;15.13;;;13.80;99.90;;;;;;5010490;28;20133;-44
2022/06/09 05:23:04;;;;;;;55.40;20.70;;;14.10;99.90;;;;;;5010108;28;20042;-45
2022/06/09 05:25:29;;;;;;;59.55;20.42;;;13.80;99.90;;;;;;5010192;28;20042;-43
2022/06/09 05:27:55;;;;;;;49.92;18.33;;;14.70;99.90;;;;;;5010120;28;20042;-44
2022/06/09 05:30:23;;;;;;;51.13;22.23;;;13.80;99.90;;;;;;5009953;28;20085;-43
2022/06/09 05:32:50;;;;;;;62.88;23.55;;;13.80;99.90;;;;;;5010388;28;20046;-43
2022/06/09 05:35:17;;;;;;;59.72;23.17;;;13.80;99.90;;;;;;5009822;28;20405;-44
2022/06/09 05:45:59;;;;;;;37.55;19.30;;;14.10;99.90;;;;;;5009964;28;20108;-44
2022/06/09 05:48:24;;;;;;;57.70;24.80;;;14.00;99.90;;;;;;5009933;28;20042;-43
2022/06/09 05:50:52;;;;;;;44.30;24.00;;;14.10;99.90;;;;;;5010336;28;20469;-43
2022/06/09 05:53:18;;;;;;;41.75;22.15;;;14.00;99.90;;;;;;5009665;28;20547;-44
2022/06/09 05:55:44;;;;;;;48.20;22.13;;;13.90;99.90;;;;;;5010416;28;20517;-44
2022/06/09 05:58:10;;;;;;;34.45;23.13;;;13.90;99.90;;;;;;5013551;28;20077;-43
2022/06/09 06:00:37;;;;;;;47.40;23.73;;;13.80;99.90;;;;;;5013688;28;20396;-43
2022/06/09 06:03:03;;;;;;;54.63;25.02;;;14.30;99.90;;;;;;5013151;28;20049;-44
2022/06/09 06:08:13;;;;;;;38.03;22.15;;;13.80;99.90;;;;;;5013565;28;20100;-44
2022/06/09 06:10:39;;;;;;;34.20;20.20;;;13.90;99.90;;;;;;5013125;28;20041;-43
2022/06/09 06:13:05;;;;;;;48.63;24.27;;;14.00;99.90;;;;;;5013126;28;20088;-43
2022/06/09 06:15:32;;;;;;;49.30;25.77;;;14.10;99.90;;;;;;5013049;28;20062;-44
2022/06/09 06:18:01;;;;;;;49.50;24.88;;;14.00;99.90;;;;;;5013181;28;20580;-43
2022/06/09 06:20:26;;;;;;;47.72;24.85;;;14.30;99.90;;;;;;5011599;28;20053;-45
2022/06/09 06:22:52;;;;;;;45.80;23.77;;;14.20;99.90;;;;;;5013390;28;20053;-44
2022/06/09 06:25:18;;;;;;;48.00;25.17;;;14.30;99.90;;;;;;5012958;28;20046;-45
2022/06/09 06:27:44;;;;;;;47.90;23.55;;;14.30;99.90;;;;;;5013356;28;20419;-43
2022/06/09 06:30:10;;;;;;;51.33;26.77;;;14.40;99.90;;;;;;5012874;28;20552;-43
2022/06/09 06:32:35;;;;;;;39.15;23.63;;;14.50;99.90;;;;;;5012338;28;20124;-43
2022/06/09 06:35:01;;;;;;;51.25;25.48;;;14.90;99.90;;;;;;5013031;28;20427;-43
2022/06/09 06:37:27;;;;;;;37.75;24.85;;;15.30;99.90;;;;;;5012947;28;20410;-43
2022/06/09 06:39:52;;;;;;;45.58;25.08;;;15.00;99.90;;;;;;5012955;28;20422;-43
2022/06/09 06:42:18;;;;;;;43.50;25.00;;;15.10;99.90;;;;;;5013033;28;20046;-43
2022/06/09 06:44:44;;;;;;;46.90;25.95;;;15.00;99.90;;;;;;5012720;28;20733;-44
2022/06/09 06:47:11;;;;;;;40.13;24.35;;;15.30;99.90;;;;;;5012756;28;20053;-43
2022/06/09 06:49:37;;;;;;;45.03;25.27;;;15.40;99.90;;;;;;5012669;28;20100;-44
2022/06/09 06:52:04;;;;;;;35.85;24.05;;;15.60;99.90;;;;;;5012903;28;20045;-43
2022/06/09 06:54:30;;;;;;;48.33;28.13;;;15.80;99.90;;;;;;5012284;28;20041;-44
2022/06/09 06:56:55;;;;;;;32.55;22.52;;;16.70;99.90;;;;;;5012781;28;20072;-44
2022/06/09 06:59:21;;;;;;;32.83;23.73;;;17.30;99.90;;;;;;5012308;28;20041;-44
2022/06/09 07:01:47;;;;;;;25.02;21.35;;;19.70;99.90;;;;;;5012303;28;20293;-45
2022/06/09 07:04:13;;;;;;;19.20;16.23;;;21.10;99.90;;;;;;5010976;28;20042;-45
2022/06/09 07:06:39;;;;;;;18.48;15.05;;;21.40;99.90;;;;;;5011832;28;20053;-46
2022/06/09 07:09:04;;;;;;;15.45;13.85;;;22.40;99.90;;;;;;5012187;28;20480;-45
2022/06/09 07:11:30;;;;;;;15.25;13.63;;;22.10;99.90;;;;;;5012001;28;20049;-45
2022/06/09 07:13:56;;;;;;;13.90;12.50;;;21.50;99.90;;;;;;5012204;28;20042;-46
2022/06/09 07:16:22;;;;;;;12.43;11.00;;;21.20;99.90;;;;;;5011977;28;20062;-45
2022/06/09 07:18:50;;;;;;;13.00;11.48;;;21.30;99.90;;;;;;5012191;28;20048;-44
2022/06/09 07:21:17;;;;;;;13.15;11.45;;;20.90;99.90;;;;;;5011998;28;20104;-43
2022/06/09 07:23:45;;;;;;;10.90;9.80;;;21.60;99.90;;;;;;5012020;28;20085;-45
2022/06/09 07:26:11;;;;;;;11.40;9.98;;;22.60;99.90;;;;;;5011852;28;20506;-44
2022/06/09 07:28:37;;;;;;;10.68;8.90;;;23.60;99.90;;;;;;5011905;28;20157;-43
2022/06/09 07:31:05;;;;;;;9.63;8.68;;;23.20;99.90;;;;;;5012364;28;20038;-43
2022/06/09 07:33:34;;;;;;;9.05;7.65;;;24.50;99.90;;;;;;5011247;28;20056;-44
2022/06/09 07:36:00;;;;;;;9.00;7.55;;;24.90;99.90;;;;;;5011622;28;20493;-43
2022/06/09 07:38:27;;;;;;;9.48;8.50;;;24.10;99.90;;;;;;5012009;28;20064;-46
2022/06/09 07:40:53;;;;;;;7.70;6.38;;;23.80;99.90;;;;;;5011714;28;20501;-45
2022/06/09 07:43:20;;;;;;;6.90;6.30;;;23.40;99.90;;;;;;5011563;28;20042;-46
2022/06/09 07:45:47;;;;;;;7.78;6.10;;;24.10;99.90;;;;;;5011045;28;20046;-47
2022/06/09 07:48:13;;;;;;;6.72;5.97;;;25.50;99.90;;;;;;5011501;28;20037;-47
2022/06/09 07:50:40;;;;;;;7.07;4.40;;;27.20;99.90;;;;;;5011511;28;20096;-46
2022/06/09 07:53:06;;;;;;;5.57;5.05;;;28.60;98.40;;;;;;5011682;28;20049;-47
2022/06/09 07:55:33;;;;;;;8.23;5.07;;;28.40;96.40;;;;;;5011247;28;20044;-47
2022/06/09 07:57:59;;;;;;;9.02;4.90;;;26.70;93.70;;;;;;5012037;28;20069;-46
2022/06/09 08:00:26;;;;;;;8.52;4.85;;;26.70;93.70;;;;;;5011419;28;20048;-46
2022/06/09 08:02:52;;;;;;;6.60;4.35;;;26.70;93.60;;;;;;5011560;28;20046;-45
2022/06/09 08:05:21;;;;;;;5.68;3.67;;;26.10;93.60;;;;;;5009427;28;20037;-45
2022/06/09 08:07:47;;;;;;;3.90;3.13;;;27.10;92.90;;;;;;5009271;28;20148;-45
2022/06/09 08:10:20;;;;;;;3.92;2.80;;;27.90;91.90;;;;;;5009026;28;20458;-48
2022/06/09 08:12:47;;;;;;;4.10;2.47;;;27.90;90.90;;;;;;5009745;28;20042;-48
2022/06/09 08:15:13;;;;;;;4.50;2.92;;;27.00;91.10;;;;;;5009639;28;20124;-46
2022/06/09 08:17:39;;;;;;;5.82;2.72;;;25.80;91.40;;;;;;5009392;28;20486;-48
2022/06/09 08:20:07;;;;;;;4.68;2.40;;;25.70;92.20;;;;;;5008476;28;20038;-47
2022/06/09 08:22:33;;;;;;;6.50;2.25;;;26.40;91.50;;;;;;5009218;28;20042;-47
2022/06/09 08:24:59;;;;;;;5.80;1.40;;;26.60;92.10;;;;;;5008830;28;20049;-47
2022/06/09 08:27:24;;;;;;;2.53;1.08;;;27.80;90.60;;;;;;5009062;28;20054;-49
2022/06/09 08:29:51;;;;;;;5.13;1.45;;;28.80;88.60;;;;;;5009079;28;20095;-48
2022/06/09 08:32:17;;;;;;;3.38;1.40;;;29.80;86.40;;;;;;5009102;28;20127;-47
2022/06/09 08:34:42;;;;;;;4.25;1.50;;;29.00;83.70;;;;;;5007649;28;20134;-47
2022/06/09 08:37:08;;;;;;;6.13;2.05;;;27.70;83.10;;;;;;5008860;28;20504;-48
2022/06/09 08:39:35;;;;;;;3.55;1.00;;;26.70;83.30;;;;;;5008405;28;20042;-48
2022/06/09 08:42:26;;;;;;;4.80;1.13;;;26.70;85.40;;;;;;5009135;28;20121;-47
2022/06/09 08:45:02;;;;;;;4.10;0.90;;;28.00;85.20;;;;;;5008911;28;20048;-48
2022/06/09 08:47:36;;;;;;;3.17;0.95;;;28.70;82.70;;;;;;5008985;28;20038;-48
2022/06/09 08:50:05;;;;;;;2.42;0.75;;;27.90;80.60;;;;;;5007556;28;20046;-48
2022/06/09 08:52:39;;;;;;;4.90;0.50;;;27.30;79.40;;;;;;5009163;28;20487;-48
2022/06/09 08:55:23;;;;;;;4.55;0.57;;;28.40;80.50;;;;;;5009020;28;20041;-48
2022/06/09 08:57:52;;;;;;;2.60;0.43;;;29.70;79.40;;;;;;5008736;28;20037;-49
2022/06/09 09:00:21;;;;;;;3.35;0.68;;;30.50;76.10;;;;;;5009378;28;20117;-48
2022/06/09 09:02:54;;;;;;;3.92;0.63;;;29.70;73.70;;;;;;5007681;28;20570;-48
2022/06/09 09:05:30;;;;;;;2.03;0.57;;;29.00;73.60;;;;;;5008361;28;20153;-47
2022/06/09 09:07:59;;;;;;;2.97;0.65;;;29.80;74.10;;;;;;5008760;28;20053;-49
2022/06/09 09:10:31;;;;;;;3.13;0.57;;;31.00;72.50;;;;;;5008329;28;20385;-47
2022/06/09 09:13:05;;;;;;;3.38;0.32;;;30.80;68.70;;;;;;5009021;28;20278;-48
2022/06/09 09:15:38;;;;;;;2.60;0.47;;;30.40;68.00;;;;;;5008855;28;20577;-47
2022/06/09 09:18:22;;;;;;;4.80;0.60;;;30.30;67.90;;;;;;5009459;28;20045;-48
2022/06/09 09:21:13;;;;;;;3.42;0.30;;;30.90;68.90;;;;;;5009055;28;20053;-49
2022/06/09 09:23:46;;;;;;;2.70;0.40;;;32.00;69.40;;;;;;5008810;28;20104;-49
2022/06/09 09:26:49;;;;;;;3.75;0.30;;;32.80;66.50;;;;;;5008867;28;20046;-50
2022/06/09 09:29:57;;;;;;;2.75;0.22;;;33.80;65.60;;;;;;5009346;28;20464;-50
2022/06/09 09:32:28;;;;;;;1.92;0.30;;;32.10;61.40;;;;;;5012591;28;20738;-47
2022/06/09 09:34:55;;;;;;;3.78;0.40;;;30.60;64.20;;;;;;5012772;28;20077;-48
2022/06/09 09:37:46;;;;;;;1.23;0.22;;;30.20;66.20;;;;;;5012701;28;20100;-49
2022/06/09 09:40:11;;;;;;;2.90;0.30;;;29.50;66.50;;;;;;5012708;28;20541;-47
2022/06/09 09:42:42;;;;;;;2.75;0.30;;;28.90;67.00;;;;;;5013098;28;20156;-48
2022/06/09 09:45:10;;;;;;;4.00;0.40;;;28.00;67.30;;;;;;5012828;28;20402;-48
2022/06/09 09:47:42;;;;;;;5.07;0.38;;;27.20;68.40;;;;;;5013025;28;20687;-47
2022/06/09 09:50:18;;;;;;;2.53;0.22;;;27.50;70.70;;;;;;5012630;28;20659;-47
2022/06/09 09:52:46;;;;;;;2.38;0.20;;;28.50;70.70;;;;;;5012369;28;20120;-48
2022/06/09 09:55:49;;;;;;;1.83;0.17;;;29.30;67.40;;;;;;5012271;28;20045;-47
2022/06/09 09:58:33;;;;;;;3.05;0.32;;;30.30;68.80;;;;;;5011978;28;20045;-49
2022/06/09 10:01:06;;;;;;;3.15;0.32;;;31.00;65.80;;;;;;5012748;28;20046;-48
2022/06/09 10:09:27;;;;;;;2.42;0.40;;;32.80;62.50;;;;;;5011950;28;20406;-50
2022/06/09 10:11:59;;;;;;;4.32;0.40;;;33.10;60.00;;;;;;5011874;28;20045;-47
2022/06/09 10:14:40;;;;;;;2.95;0.40;;;32.10;59.00;;;;;;5012354;28;20478;-47
2022/06/09 10:17:19;;;;;;;4.90;0.70;;;30.60;59.40;;;;;;5011393;28;20053;-48
2022/06/09 10:19:50;;;;;;;3.35;0.20;;;29.80;62.60;;;;;;5012288;28;20088;-50
2022/06/09 10:22:22;;;;;;;5.22;0.30;;;30.10;62.80;;;;;;5012535;28;20103;-48
2022/06/09 10:24:57;;;;;;;4.57;0.30;;;29.70;62.20;;;;;;5012716;28;20543;-48
2022/06/09 10:27:31;;;;;;;7.68;0.30;;;29.40;62.30;;;;;;5012591;28;20440;-48
2022/06/09 10:30:36;;;;;;;3.15;0.40;;;29.70;62.30;;;;;;5012653;28;20045;-47
2022/06/09 10:33:15;;;;;;;3.85;0.57;;;30.10;62.60;;;;;;5009580;28;20041;-47
2022/06/09 10:35:54;;;;;;;5.18;0.40;;;30.50;61.20;;;;;;5012106;28;20050;-49
2022/06/09 10:38:35;;;;;;;2.50;0.50;;;29.80;71.90;;;;;;5012253;28;20121;-47
2022/06/09 10:41:04;;;;;;;2.70;0.30;;;28.20;60.30;;;;;;5011327;28;20077;-47
2022/06/09 10:43:46;;;;;;;1.77;0.10;;;27.90;64.60;;;;;;5011547;28;20364;-47
2022/06/09 10:46:22;;;;;;;3.22;0.38;;;28.40;62.50;;;;;;5012035;28;20151;-46
2022/06/09 10:55:40;;;;;;;3.15;0.55;;;27.80;63.90;;;;;;5009648;28;20516;-50
2022/06/09 10:58:17;;;;;;;1.77;0.20;;;26.70;64.60;;;;;;5010142;28;20497;-49
2022/06/09 11:00:45;;;;;;;2.88;0.20;;;25.70;68.70;;;;;;5011916;28;20056;-50
2022/06/09 11:03:17;;;;;;;3.65;0.20;;;25.10;71.40;;;;;;5009466;28;20116;-53
2022/06/09 11:06:01;;;;;;;2.47;0.40;;;24.70;94.30;;;;;;5011272;28;20053;-51
2022/06/09 11:08:39;;;;;;;2.70;0.22;;;24.10;72.70;;;;;;5011309;28;20480;-48
2022/06/09 11:11:42;;;;;;;3.28;0.40;;;23.60;74.40;;;;;;5010551;28;20401;-51
2022/06/09 11:14:26;;;;;;;3.30;0.30;;;23.30;79.20;;;;;;5011146;28;20114;-49
2022/06/09 11:17:22;;;;;;;4.25;0.38;;;22.80;79.30;;;;;;5010755;28;20501;-51
2022/06/09 11:19:49;;;;;;;3.58;0.60;;;22.70;81.60;;;;;;5011468;28;20137;-50
2022/06/09 11:22:30;;;;;;;6.47;0.40;;;22.70;84.30;;;;;;5010085;28;20747;-48
2022/06/09 11:25:21;;;;;;;6.07;0.55;;;22.80;82.80;;;;;;5010775;28;20057;-48
2022/06/09 11:27:57;;;;;;;6.78;0.90;;;22.40;82.80;;;;;;5011335;28;20475;-49
2022/06/09 11:30:46;;;;;;;2.83;0.60;;;22.30;83.60;;;;;;5011073;28;20069;-49
2022/06/09 11:33:14;;;;;;;3.55;0.22;;;22.10;85.20;;;;;;5010817;28;20045;-48
2022/06/09 11:35:49;;;;;;;3.47;0.30;;;22.50;87.30;;;;;;5009207;28;20505;-48
2022/06/09 11:38:36;;;;;;;3.35;0.30;;;22.20;88.30;;;;;;5009797;28;20070;-47
2022/06/09 11:41:16;;;;;;;4.03;0.43;;;22.20;86.70;;;;;;5011519;28;20041;-48
2022/06/09 11:44:11;;;;;;;5.07;0.47;;;22.40;89.10;;;;;;5012087;28;20073;-46
2022/06/09 11:46:40;;;;;;;2.60;1.10;;;22.40;85.70;;;;;;5012444;28;20046;-49
2022/06/09 11:49:22;;;;;;;1.77;0.50;;;22.40;87.50;;;;;;5011784;28;20052;-48
2022/06/09 11:51:49;;;;;;;3.75;0.28;;;22.40;88.40;;;;;;5011945;28;20131;-46
2022/06/09 11:54:51;;;;;;;3.88;0.20;;;22.40;88.70;;;;;;5011761;28;20041;-47
2022/06/09 11:57:16;;;;;;;2.30;0.20;;;22.20;87.60;;;;;;5009965;28;20049;-49
2022/06/09 11:59:56;;;;;;;3.75;0.65;;;22.20;89.70;;;;;;5011583;28;20060;-49
2022/06/09 12:02:44;;;;;;;3.55;0.20;;;22.30;89.40;;;;;;5012022;28;20046;-49
2022/06/09 12:05:45;;;;;;;3.75;0.40;;;22.20;89.90;;;;;;5011896;28;20048;-47
2022/06/09 12:08:32;;;;;;;3.58;0.30;;;21.90;89.80;;;;;;5009017;28;20815;-46
2022/06/09 12:11:09;;;;;;;5.50;0.50;;;21.80;87.50;;;;;;5010802;28;20054;-50
2022/06/09 12:13:38;;;;;;;4.40;0.32;;;21.70;90.40;;;;;;5011336;28;20393;-47
2022/06/09 12:16:30;;;;;;;6.68;0.60;;;21.60;90.00;;;;;;5011099;28;20062;-47
2022/06/09 12:19:03;;;;;;;;;;;21.50;90.20;;;;;;5010953;28;20058;-47
2022/06/09 12:21:35;;;;;;;2.47;0.20;;;21.50;90.80;;;;;;5011835;28;19918;-47
2022/06/09 12:24:04;;;;;;;2.17;0.30;;;21.60;93.30;;;;;;5011298;28;20037;-47
2022/06/09 12:26:44;;;;;;;5.30;0.40;;;21.10;89.10;;;;;;5011684;28;20042;-47
2022/06/09 12:29:22;;;;;;;3.90;0.40;;;21.00;88.80;;;;;;5009984;28;20041;-47
2022/06/09 12:32:06;;;;;;;3.55;0.40;;;21.00;88.30;;;;;;5009440;28;20532;-48
2022/06/09 12:34:33;;;;;;;2.75;0.60;;;20.90;90.60;;;;;;5009178;28;20134;-47
2022/06/09 12:37:01;;;;;;;3.45;0.43;;;20.80;91.00;;;;;;5009014;28;20070;-49
2022/06/09 12:39:38;;;;;;;2.58;0.20;;;21.20;91.20;;;;;;5008881;28;20068;-48
2022/06/09 12:42:24;;;;;;;5.93;0.40;;;20.70;90.10;;;;;;5007559;28;20760;-50
2022/06/09 12:45:13;;;;;;;2.58;0.30;;;20.60;89.90;;;;;;5008768;28;20052;-47
2022/06/09 12:48:02;;;;;;;3.72;0.40;;;20.60;90.80;;;;;;5008415;28;20097;-49
2022/06/09 12:50:45;;;;;;;3.63;0.47;;;20.60;91.10;;;;;;5009091;28;20565;-47
2022/06/09 12:53:34;;;;;;;3.28;0.20;;;20.70;90.40;;;;;;5008785;28;20045;-48
2022/06/09 12:56:22;;;;;;;6.28;0.68;;;20.90;91.30;;;;;;5009033;28;20107;-47
2022/06/09 12:58:50;;;;;;;5.88;0.70;;;20.90;89.60;;;;;;5008657;28;20050;-47
2022/06/09 13:01:29;;;;;;;3.90;0.85;;;20.90;90.60;;;;;;5008317;28;20050;-47
2022/06/09 13:03:59;;;;;;;4.50;0.40;;;21.00;90.30;;;;;;5008887;28;20078;-47
2022/06/09 13:06:37;;;;;;;3.92;0.30;;;21.00;89.40;;;;;;5008926;28;20050;-47
2022/06/09 13:09:15;;;;;;;4.18;0.30;;;21.00;89.40;;;;;;5008442;28;20070;-50
2022/06/09 13:14:32;;;;;;;2.72;0.40;;;21.30;89.60;;;;;;5008433;28;20192;-48
2022/06/09 13:17:02;;;;;;;2.92;0.22;;;21.10;89.70;;;;;;5008085;28;20505;-47
2022/06/09 13:19:29;;;;;;;3.90;0.30;;;20.90;89.30;;;;;;5007443;28;20563;-47
2022/06/09 13:21:59;;;;;;;2.33;0.40;;;20.80;89.20;;;;;;5008814;28;20037;-50